sensor_id;sensor_type;location;lat;lon;timestamp;P1;durP1;ratioP1;P2;durP2;ratioP2
71677;SDS011;59511;52.136;6.206;2023-09-19T00:00:23;7.88;;;4.78;;
71677;SDS011;59511;52.136;6.206;2023-09-19T00:02:54;7.10;;;4.60;;
71677;SDS011;59511;52.136;6.206;2023-09-19T00:05:24;7.15;;;4.53;;
71677;SDS011;59511;52.136;6.206;2023-09-19T00:07:53;6.60;;;4.45;;
71677;SDS011;59511;52.136;6.206;2023-09-19T00:10:20;7.35;;;4.80;;
71677;SDS011;59511;52.136;6.206;2023-09-19T00:12:49;7.28;;;4.65;;
71677;SDS011;59511;52.136;6.206;2023-09-19T00:15:17;7.77;;;4.43;;
71677;SDS011;59511;52.136;6.206;2023-09-19T00:17:42;7.93;;;4.55;;
71677;SDS011;59511;52.136;6.206;2023-09-19T00:20:08;8.48;;;4.53;;
71677;SDS011;59511;52.136;6.206;2023-09-19T00:22:40;6.40;;;4.20;;
71677;SDS011;59511;52.136;6.206;2023-09-19T00:25:09;7.45;;;4.85;;
71677;SDS011;59511;52.136;6.206;2023-09-19T00:27:35;6.18;;;4.78;;
71677;SDS011;59511;52.136;6.206;2023-09-19T00:30:06;6.83;;;4.87;;
71677;SDS011;59511;52.136;6.206;2023-09-19T00:32:34;6.63;;;4.45;;
71677;SDS011;59511;52.136;6.206;2023-09-19T00:34:59;7.60;;;4.20;;
71677;SDS011;59511;52.136;6.206;2023-09-19T00:37:25;7.83;;;4.53;;
71677;SDS011;59511;52.136;6.206;2023-09-19T00:39:50;7.03;;;4.87;;
71677;SDS011;59511;52.136;6.206;2023-09-19T00:42:20;7.32;;;4.55;;
71677;SDS011;59511;52.136;6.206;2023-09-19T00:44:46;7.38;;;4.38;;
71677;SDS011;59511;52.136;6.206;2023-09-19T00:47:11;6.23;;;4.40;;
71677;SDS011;59511;52.136;6.206;2023-09-19T00:49:41;6.45;;;4.20;;
71677;SDS011;59511;52.136;6.206;2023-09-19T00:52:07;7.20;;;4.60;;
71677;SDS011;59511;52.136;6.206;2023-09-19T00:54:35;7.03;;;4.10;;
71677;SDS011;59511;52.136;6.206;2023-09-19T00:57:01;6.70;;;4.60;;
71677;SDS011;59511;52.136;6.206;2023-09-19T00:59:26;6.07;;;4.53;;
71677;SDS011;59511;52.136;6.206;2023-09-19T01:01:53;6.70;;;4.00;;
71677;SDS011;59511;52.136;6.206;2023-09-19T01:04:19;6.15;;;4.53;;
71677;SDS011;59511;52.136;6.206;2023-09-19T01:06:45;7.63;;;4.53;;
71677;SDS011;59511;52.136;6.206;2023-09-19T01:09:11;7.20;;;4.25;;
71677;SDS011;59511;52.136;6.206;2023-09-19T01:11:43;5.90;;;4.23;;
71677;SDS011;59511;52.136;6.206;2023-09-19T01:16:42;8.38;;;4.45;;
71677;SDS011;59511;52.136;6.206;2023-09-19T01:22:21;6.38;;;4.15;;
71677;SDS011;59511;52.136;6.206;2023-09-19T01:30:42;7.32;;;4.03;;
71677;SDS011;59511;52.136;6.206;2023-09-19T01:33:09;7.93;;;5.00;;
71677;SDS011;59511;52.136;6.206;2023-09-19T01:35:37;6.82;;;4.18;;
71677;SDS011;59511;52.136;6.206;2023-09-19T01:38:04;6.57;;;3.87;;
71677;SDS011;59511;52.136;6.206;2023-09-19T01:40:39;7.00;;;4.10;;
71677;SDS011;59511;52.136;6.206;2023-09-19T01:43:31;5.80;;;4.00;;
71677;SDS011;59511;52.136;6.206;2023-09-19T01:51:07;6.50;;;4.20;;
71677;SDS011;59511;52.136;6.206;2023-09-19T01:53:36;6.57;;;3.60;;
71677;SDS011;59511;52.136;6.206;2023-09-19T01:56:12;6.78;;;4.20;;
71677;SDS011;59511;52.136;6.206;2023-09-19T01:58:48;6.82;;;4.00;;
71677;SDS011;59511;52.136;6.206;2023-09-19T02:01:17;5.47;;;3.90;;
71677;SDS011;59511;52.136;6.206;2023-09-19T02:03:50;7.20;;;4.10;;
71677;SDS011;59511;52.136;6.206;2023-09-19T02:06:17;6.72;;;3.92;;
71677;SDS011;59511;52.136;6.206;2023-09-19T02:08:44;7.10;;;4.03;;
71677;SDS011;59511;52.136;6.206;2023-09-19T02:11:10;5.63;;;4.03;;
71677;SDS011;59511;52.136;6.206;2023-09-19T02:13:37;6.78;;;4.07;;
71677;SDS011;59511;52.136;6.206;2023-09-19T02:16:03;6.17;;;3.63;;
71677;SDS011;59511;52.136;6.206;2023-09-19T02:18:29;7.75;;;4.05;;
71677;SDS011;59511;52.136;6.206;2023-09-19T02:20:55;5.88;;;4.00;;
71677;SDS011;59511;52.136;6.206;2023-09-19T02:23:21;5.97;;;3.90;;
71677;SDS011;59511;52.136;6.206;2023-09-19T02:25:53;9.15;;;4.18;;
71677;SDS011;59511;52.136;6.206;2023-09-19T02:28:19;6.72;;;3.80;;
71677;SDS011;59511;52.136;6.206;2023-09-19T02:30:48;6.83;;;4.13;;
71677;SDS011;59511;52.136;6.206;2023-09-19T02:33:14;6.65;;;3.75;;
71677;SDS011;59511;52.136;6.206;2023-09-19T02:35:40;6.73;;;3.77;;
71677;SDS011;59511;52.136;6.206;2023-09-19T02:38:05;7.43;;;4.00;;
71677;SDS011;59511;52.136;6.206;2023-09-19T02:40:32;5.87;;;3.90;;
71677;SDS011;59511;52.136;6.206;2023-09-19T02:43:00;6.50;;;3.75;;
71677;SDS011;59511;52.136;6.206;2023-09-19T02:45:27;8.05;;;4.10;;
71677;SDS011;59511;52.136;6.206;2023-09-19T02:47:52;6.97;;;4.10;;
71677;SDS011;59511;52.136;6.206;2023-09-19T02:50:18;6.93;;;4.63;;
71677;SDS011;59511;52.136;6.206;2023-09-19T02:52:43;7.67;;;3.90;;
71677;SDS011;59511;52.136;6.206;2023-09-19T02:55:10;7.05;;;4.18;;
71677;SDS011;59511;52.136;6.206;2023-09-19T02:57:39;7.15;;;3.83;;
71677;SDS011;59511;52.136;6.206;2023-09-19T03:00:08;7.47;;;3.90;;
71677;SDS011;59511;52.136;6.206;2023-09-19T03:02:35;6.93;;;4.15;;
71677;SDS011;59511;52.136;6.206;2023-09-19T03:05:01;5.97;;;3.60;;
71677;SDS011;59511;52.136;6.206;2023-09-19T03:07:28;6.82;;;4.00;;
71677;SDS011;59511;52.136;6.206;2023-09-19T03:09:53;6.63;;;3.87;;
71677;SDS011;59511;52.136;6.206;2023-09-19T03:12:20;7.25;;;4.13;;
71677;SDS011;59511;52.136;6.206;2023-09-19T03:14:45;6.43;;;4.17;;
71677;SDS011;59511;52.136;6.206;2023-09-19T03:17:11;6.63;;;3.90;;
71677;SDS011;59511;52.136;6.206;2023-09-19T03:19:36;6.93;;;3.88;;
71677;SDS011;59511;52.136;6.206;2023-09-19T03:22:04;6.50;;;4.13;;
71677;SDS011;59511;52.136;6.206;2023-09-19T03:24:29;6.10;;;3.83;;
71677;SDS011;59511;52.136;6.206;2023-09-19T03:26:56;7.25;;;3.95;;
71677;SDS011;59511;52.136;6.206;2023-09-19T03:29:22;6.00;;;4.00;;
71677;SDS011;59511;52.136;6.206;2023-09-19T03:31:47;6.93;;;3.90;;
71677;SDS011;59511;52.136;6.206;2023-09-19T03:34:13;5.85;;;3.95;;
71677;SDS011;59511;52.136;6.206;2023-09-19T03:36:39;7.13;;;4.00;;
71677;SDS011;59511;52.136;6.206;2023-09-19T03:39:05;8.27;;;4.05;;
71677;SDS011;59511;52.136;6.206;2023-09-19T03:41:31;8.00;;;4.10;;
71677;SDS011;59511;52.136;6.206;2023-09-19T03:43:58;6.82;;;3.53;;
71677;SDS011;59511;52.136;6.206;2023-09-19T03:46:23;7.33;;;4.10;;
71677;SDS011;59511;52.136;6.206;2023-09-19T03:48:49;5.85;;;3.90;;
71677;SDS011;59511;52.136;6.206;2023-09-19T03:51:15;5.93;;;4.10;;
71677;SDS011;59511;52.136;6.206;2023-09-19T03:53:40;6.53;;;3.80;;
71677;SDS011;59511;52.136;6.206;2023-09-19T03:56:06;6.60;;;3.70;;
71677;SDS011;59511;52.136;6.206;2023-09-19T03:58:31;6.67;;;3.80;;
71677;SDS011;59511;52.136;6.206;2023-09-19T04:00:59;5.85;;;3.70;;
71677;SDS011;59511;52.136;6.206;2023-09-19T04:03:25;7.80;;;4.63;;
71677;SDS011;59511;52.136;6.206;2023-09-19T04:05:59;5.00;;;3.40;;
71677;SDS011;59511;52.136;6.206;2023-09-19T04:08:24;8.18;;;3.63;;
71677;SDS011;59511;52.136;6.206;2023-09-19T04:10:50;5.23;;;3.40;;
71677;SDS011;59511;52.136;6.206;2023-09-19T04:13:16;6.18;;;3.97;;
71677;SDS011;59511;52.136;6.206;2023-09-19T04:15:41;6.57;;;3.90;;
71677;SDS011;59511;52.136;6.206;2023-09-19T04:18:07;5.70;;;3.70;;
71677;SDS011;59511;52.136;6.206;2023-09-19T04:20:32;6.53;;;3.73;;
71677;SDS011;59511;52.136;6.206;2023-09-19T04:22:57;7.13;;;3.80;;
71677;SDS011;59511;52.136;6.206;2023-09-19T04:25:24;7.35;;;3.95;;
71677;SDS011;59511;52.136;6.206;2023-09-19T04:27:52;7.72;;;3.53;;
71677;SDS011;59511;52.136;6.206;2023-09-19T04:30:17;6.83;;;3.80;;
71677;SDS011;59511;52.136;6.206;2023-09-19T04:32:43;8.00;;;3.47;;
71677;SDS011;59511;52.136;6.206;2023-09-19T04:35:09;6.10;;;3.60;;
71677;SDS011;59511;52.136;6.206;2023-09-19T04:37:38;6.55;;;3.50;;
71677;SDS011;59511;52.136;6.206;2023-09-19T04:40:05;6.20;;;3.70;;
71677;SDS011;59511;52.136;6.206;2023-09-19T04:42:37;7.38;;;3.40;;
71677;SDS011;59511;52.136;6.206;2023-09-19T04:45:02;9.33;;;3.53;;
71677;SDS011;59511;52.136;6.206;2023-09-19T04:47:29;6.20;;;3.50;;
71677;SDS011;59511;52.136;6.206;2023-09-19T04:49:55;6.07;;;3.30;;
71677;SDS011;59511;52.136;6.206;2023-09-19T04:52:21;7.65;;;4.18;;
71677;SDS011;59511;52.136;6.206;2023-09-19T04:54:47;5.27;;;3.23;;
71677;SDS011;59511;52.136;6.206;2023-09-19T04:57:13;7.07;;;3.58;;
71677;SDS011;59511;52.136;6.206;2023-09-19T04:59:38;8.40;;;3.60;;
71677;SDS011;59511;52.136;6.206;2023-09-19T05:02:06;4.85;;;3.50;;
71677;SDS011;59511;52.136;6.206;2023-09-19T05:04:33;7.07;;;3.30;;
71677;SDS011;59511;52.136;6.206;2023-09-19T05:06:58;7.37;;;3.53;;
71677;SDS011;59511;52.136;6.206;2023-09-19T05:09:23;6.27;;;3.80;;
71677;SDS011;59511;52.136;6.206;2023-09-19T05:11:49;7.53;;;3.33;;
71677;SDS011;59511;52.136;6.206;2023-09-19T05:14:16;6.35;;;3.20;;
71677;SDS011;59511;52.136;6.206;2023-09-19T05:16:41;7.17;;;3.10;;
71677;SDS011;59511;52.136;6.206;2023-09-19T05:19:07;5.88;;;3.50;;
71677;SDS011;59511;52.136;6.206;2023-09-19T05:21:36;6.83;;;3.53;;
71677;SDS011;59511;52.136;6.206;2023-09-19T05:24:03;6.90;;;3.63;;
71677;SDS011;59511;52.136;6.206;2023-09-19T05:26:31;6.90;;;3.60;;
71677;SDS011;59511;52.136;6.206;2023-09-19T05:28:57;5.95;;;3.80;;
71677;SDS011;59511;52.136;6.206;2023-09-19T05:31:22;8.10;;;3.53;;
71677;SDS011;59511;52.136;6.206;2023-09-19T05:33:48;5.90;;;3.10;;
71677;SDS011;59511;52.136;6.206;2023-09-19T05:36:14;5.55;;;3.65;;
71677;SDS011;59511;52.136;6.206;2023-09-19T05:38:41;8.80;;;3.35;;
71677;SDS011;59511;52.136;6.206;2023-09-19T05:41:07;5.63;;;3.40;;
71677;SDS011;59511;52.136;6.206;2023-09-19T05:43:35;5.80;;;3.22;;
71677;SDS011;59511;52.136;6.206;2023-09-19T05:46:02;5.80;;;3.25;;
71677;SDS011;59511;52.136;6.206;2023-09-19T05:48:28;6.05;;;3.30;;
71677;SDS011;59511;52.136;6.206;2023-09-19T05:50:56;6.57;;;3.17;;
71677;SDS011;59511;52.136;6.206;2023-09-19T05:53:21;6.73;;;3.67;;
71677;SDS011;59511;52.136;6.206;2023-09-19T05:55:48;6.43;;;3.10;;
71677;SDS011;59511;52.136;6.206;2023-09-19T05:58:14;5.57;;;3.03;;
71677;SDS011;59511;52.136;6.206;2023-09-19T06:00:42;7.17;;;3.80;;
71677;SDS011;59511;52.136;6.206;2023-09-19T06:03:09;5.53;;;3.70;;
71677;SDS011;59511;52.136;6.206;2023-09-19T06:05:36;6.32;;;3.50;;
71677;SDS011;59511;52.136;6.206;2023-09-19T06:08:06;6.82;;;3.50;;
71677;SDS011;59511;52.136;6.206;2023-09-19T06:10:33;7.25;;;3.33;;
71677;SDS011;59511;52.136;6.206;2023-09-19T06:12:59;6.33;;;3.03;;
71677;SDS011;59511;52.136;6.206;2023-09-19T06:15:25;6.30;;;3.33;;
71677;SDS011;59511;52.136;6.206;2023-09-19T06:17:55;8.20;;;3.40;;
71677;SDS011;59511;52.136;6.206;2023-09-19T06:20:21;6.47;;;3.20;;
71677;SDS011;59511;52.136;6.206;2023-09-19T06:22:48;5.87;;;2.97;;
71677;SDS011;59511;52.136;6.206;2023-09-19T06:25:14;5.82;;;3.20;;
71677;SDS011;59511;52.136;6.206;2023-09-19T06:27:44;6.38;;;3.22;;
71677;SDS011;59511;52.136;6.206;2023-09-19T06:30:13;6.70;;;3.28;;
71677;SDS011;59511;52.136;6.206;2023-09-19T06:32:39;6.43;;;3.17;;
71677;SDS011;59511;52.136;6.206;2023-09-19T06:35:09;7.03;;;3.20;;
71677;SDS011;59511;52.136;6.206;2023-09-19T06:37:38;7.05;;;3.20;;
71677;SDS011;59511;52.136;6.206;2023-09-19T06:40:07;7.78;;;3.33;;
71677;SDS011;59511;52.136;6.206;2023-09-19T06:42:34;6.63;;;3.30;;
71677;SDS011;59511;52.136;6.206;2023-09-19T06:45:05;5.93;;;3.20;;
71677;SDS011;59511;52.136;6.206;2023-09-19T06:47:31;6.70;;;3.30;;
71677;SDS011;59511;52.136;6.206;2023-09-19T06:49:56;6.65;;;3.28;;
71677;SDS011;59511;52.136;6.206;2023-09-19T06:52:22;6.60;;;3.13;;
71677;SDS011;59511;52.136;6.206;2023-09-19T06:54:47;6.50;;;3.10;;
71677;SDS011;59511;52.136;6.206;2023-09-19T06:57:15;6.95;;;3.20;;
71677;SDS011;59511;52.136;6.206;2023-09-19T06:59:41;6.45;;;3.20;;
71677;SDS011;59511;52.136;6.206;2023-09-19T07:02:06;6.70;;;3.40;;
71677;SDS011;59511;52.136;6.206;2023-09-19T07:04:31;5.60;;;3.30;;
71677;SDS011;59511;52.136;6.206;2023-09-19T07:07:00;6.05;;;2.90;;
71677;SDS011;59511;52.136;6.206;2023-09-19T07:09:25;6.00;;;2.90;;
71677;SDS011;59511;52.136;6.206;2023-09-19T07:11:52;5.93;;;2.80;;
71677;SDS011;59511;52.136;6.206;2023-09-19T07:14:18;6.00;;;3.20;;
71677;SDS011;59511;52.136;6.206;2023-09-19T07:16:43;6.40;;;2.93;;
71677;SDS011;59511;52.136;6.206;2023-09-19T07:19:10;6.90;;;3.03;;
71677;SDS011;59511;52.136;6.206;2023-09-19T07:21:36;5.53;;;3.15;;
71677;SDS011;59511;52.136;6.206;2023-09-19T07:24:03;6.68;;;3.50;;
71677;SDS011;59511;52.136;6.206;2023-09-19T07:26:29;8.33;;;3.40;;
71677;SDS011;59511;52.136;6.206;2023-09-19T07:28:54;6.40;;;3.67;;
71677;SDS011;59511;52.136;6.206;2023-09-19T07:31:21;7.45;;;3.97;;
71677;SDS011;59511;52.136;6.206;2023-09-19T07:33:47;5.72;;;2.65;;
71677;SDS011;59511;52.136;6.206;2023-09-19T07:36:13;4.73;;;3.00;;
71677;SDS011;59511;52.136;6.206;2023-09-19T07:38:39;6.40;;;3.05;;
71677;SDS011;59511;52.136;6.206;2023-09-19T07:41:05;6.07;;;2.90;;
71677;SDS011;59511;52.136;6.206;2023-09-19T07:43:31;5.97;;;3.47;;
71677;SDS011;59511;52.136;6.206;2023-09-19T07:45:57;6.17;;;2.90;;
71677;SDS011;59511;52.136;6.206;2023-09-19T07:48:22;8.38;;;3.17;;
71677;SDS011;59511;52.136;6.206;2023-09-19T07:50:49;7.60;;;3.00;;
71677;SDS011;59511;52.136;6.206;2023-09-19T07:53:14;6.00;;;3.00;;
71677;SDS011;59511;52.136;6.206;2023-09-19T07:55:42;5.10;;;3.00;;
71677;SDS011;59511;52.136;6.206;2023-09-19T07:58:07;6.18;;;3.25;;
71677;SDS011;59511;52.136;6.206;2023-09-19T08:00:33;6.90;;;2.80;;
71677;SDS011;59511;52.136;6.206;2023-09-19T08:03:00;5.65;;;2.92;;
71677;SDS011;59511;52.136;6.206;2023-09-19T08:05:26;5.78;;;2.85;;
71677;SDS011;59511;52.136;6.206;2023-09-19T08:07:51;6.87;;;2.83;;
71677;SDS011;59511;52.136;6.206;2023-09-19T08:10:17;8.00;;;3.38;;
71677;SDS011;59511;52.136;6.206;2023-09-19T08:12:44;5.70;;;2.67;;
71677;SDS011;59511;52.136;6.206;2023-09-19T08:15:14;6.38;;;2.97;;
71677;SDS011;59511;52.136;6.206;2023-09-19T08:17:47;6.20;;;2.83;;
71677;SDS011;59511;52.136;6.206;2023-09-19T08:20:13;5.57;;;2.55;;
71677;SDS011;59511;52.136;6.206;2023-09-19T08:22:43;6.10;;;2.85;;
71677;SDS011;59511;52.136;6.206;2023-09-19T08:25:12;6.33;;;2.87;;
71677;SDS011;59511;52.136;6.206;2023-09-19T08:27:38;6.07;;;3.10;;
71677;SDS011;59511;52.136;6.206;2023-09-19T08:30:03;6.23;;;2.93;;
71677;SDS011;59511;52.136;6.206;2023-09-19T08:32:29;5.60;;;3.13;;
71677;SDS011;59511;52.136;6.206;2023-09-19T08:34:54;6.07;;;3.20;;
71677;SDS011;59511;52.136;6.206;2023-09-19T08:37:20;6.57;;;2.80;;
71677;SDS011;59511;52.136;6.206;2023-09-19T08:39:45;6.23;;;3.30;;
71677;SDS011;59511;52.136;6.206;2023-09-19T08:42:11;6.68;;;2.97;;
71677;SDS011;59511;52.136;6.206;2023-09-19T08:44:37;7.03;;;3.10;;
71677;SDS011;59511;52.136;6.206;2023-09-19T08:47:09;5.40;;;2.83;;
71677;SDS011;59511;52.136;6.206;2023-09-19T08:55:12;4.72;;;2.63;;
71677;SDS011;59511;52.136;6.206;2023-09-19T08:57:45;5.47;;;3.10;;
71677;SDS011;59511;52.136;6.206;2023-09-19T09:00:14;7.73;;;2.90;;
71677;SDS011;59511;52.136;6.206;2023-09-19T09:02:42;6.82;;;3.10;;
71677;SDS011;59511;52.136;6.206;2023-09-19T09:05:11;5.90;;;2.95;;
71677;SDS011;59511;52.136;6.206;2023-09-19T09:07:37;5.43;;;2.75;;
71677;SDS011;59511;52.136;6.206;2023-09-19T09:10:04;5.65;;;3.00;;
71677;SDS011;59511;52.136;6.206;2023-09-19T09:12:29;5.83;;;2.73;;
71677;SDS011;59511;52.136;6.206;2023-09-19T09:14:55;7.13;;;3.10;;
71677;SDS011;59511;52.136;6.206;2023-09-19T09:17:22;6.25;;;2.70;;
71677;SDS011;59511;52.136;6.206;2023-09-19T09:19:49;5.20;;;2.70;;
71677;SDS011;59511;52.136;6.206;2023-09-19T09:22:17;5.37;;;2.90;;
71677;SDS011;59511;52.136;6.206;2023-09-19T09:27:26;4.90;;;2.90;;
71677;SDS011;59511;52.136;6.206;2023-09-19T09:29:52;6.30;;;3.30;;
71677;SDS011;59511;52.136;6.206;2023-09-19T09:32:20;5.07;;;2.47;;
71677;SDS011;59511;52.136;6.206;2023-09-19T09:34:53;6.05;;;3.00;;
71677;SDS011;59511;52.136;6.206;2023-09-19T09:37:21;7.07;;;3.13;;
71677;SDS011;59511;52.136;6.206;2023-09-19T09:39:57;5.65;;;2.72;;
71677;SDS011;59511;52.136;6.206;2023-09-19T09:42:37;5.80;;;2.80;;
71677;SDS011;59511;52.136;6.206;2023-09-19T09:48:04;5.13;;;2.80;;
71677;SDS011;59511;52.136;6.206;2023-09-19T09:50:39;6.03;;;2.40;;
71677;SDS011;59511;52.136;6.206;2023-09-19T09:53:25;5.28;;;2.85;;
71677;SDS011;59511;52.136;6.206;2023-09-19T09:56:09;5.50;;;2.97;;
71677;SDS011;59511;52.136;6.206;2023-09-19T09:58:37;6.82;;;3.08;;
71677;SDS011;59511;52.136;6.206;2023-09-19T10:01:14;5.43;;;3.13;;
71677;SDS011;59511;52.136;6.206;2023-09-19T10:03:42;5.55;;;2.85;;
71677;SDS011;59511;52.136;6.206;2023-09-19T10:06:13;6.85;;;3.03;;
71677;SDS011;59511;52.136;6.206;2023-09-19T10:09:08;6.37;;;3.10;;
71677;SDS011;59511;52.136;6.206;2023-09-19T10:11:47;5.53;;;2.90;;
71677;SDS011;59511;52.136;6.206;2023-09-19T10:14:19;6.07;;;3.38;;
71677;SDS011;59511;52.136;6.206;2023-09-19T10:16:49;4.97;;;2.70;;
71677;SDS011;59511;52.136;6.206;2023-09-19T10:19:21;5.67;;;2.70;;
71677;SDS011;59511;52.136;6.206;2023-09-19T10:21:55;6.50;;;3.20;;
71677;SDS011;59511;52.136;6.206;2023-09-19T10:24:22;5.18;;;3.05;;
71677;SDS011;59511;52.136;6.206;2023-09-19T10:26:51;6.50;;;2.70;;
71677;SDS011;59511;52.136;6.206;2023-09-19T10:29:16;5.00;;;2.50;;
71677;SDS011;59511;52.136;6.206;2023-09-19T10:31:43;5.53;;;2.72;;
71677;SDS011;59511;52.136;6.206;2023-09-19T10:34:14;6.32;;;3.20;;
71677;SDS011;59511;52.136;6.206;2023-09-19T10:36:40;5.68;;;3.10;;
71677;SDS011;59511;52.136;6.206;2023-09-19T10:39:10;4.70;;;2.60;;
71677;SDS011;59511;52.136;6.206;2023-09-19T10:41:38;6.15;;;2.97;;
71677;SDS011;59511;52.136;6.206;2023-09-19T10:44:04;6.03;;;2.70;;
71677;SDS011;59511;52.136;6.206;2023-09-19T10:46:34;4.95;;;3.05;;
71677;SDS011;59511;52.136;6.206;2023-09-19T10:48:59;6.88;;;3.08;;
71677;SDS011;59511;52.136;6.206;2023-09-19T10:51:27;5.47;;;2.90;;
71677;SDS011;59511;52.136;6.206;2023-09-19T10:53:59;7.85;;;2.90;;
71677;SDS011;59511;52.136;6.206;2023-09-19T10:56:35;7.53;;;2.72;;
71677;SDS011;59511;52.136;6.206;2023-09-19T10:59:12;5.40;;;2.33;;
71677;SDS011;59511;52.136;6.206;2023-09-19T11:01:46;5.88;;;2.80;;
71677;SDS011;59511;52.136;6.206;2023-09-19T11:04:28;5.30;;;3.07;;
71677;SDS011;59511;52.136;6.206;2023-09-19T11:09:48;4.95;;;2.80;;
71677;SDS011;59511;52.136;6.206;2023-09-19T11:15:00;5.25;;;2.60;;
71677;SDS011;59511;52.136;6.206;2023-09-19T11:30:41;6.00;;;2.85;;
71677;SDS011;59511;52.136;6.206;2023-09-19T11:33:21;6.68;;;2.78;;
71677;SDS011;59511;52.136;6.206;2023-09-19T11:35:58;5.03;;;2.73;;
71677;SDS011;59511;52.136;6.206;2023-09-19T11:46:55;6.45;;;3.00;;
71677;SDS011;59511;52.136;6.206;2023-09-19T11:49:30;6.03;;;2.90;;
71677;SDS011;59511;52.136;6.206;2023-09-19T11:51:58;6.90;;;3.08;;
71677;SDS011;59511;52.136;6.206;2023-09-19T11:54:31;5.93;;;2.97;;
71677;SDS011;59511;52.136;6.206;2023-09-19T11:56:57;5.75;;;2.65;;
71677;SDS011;59511;52.136;6.206;2023-09-19T11:59:24;5.22;;;2.70;;
71677;SDS011;59511;52.136;6.206;2023-09-19T12:01:56;5.63;;;2.67;;
71677;SDS011;59511;52.136;6.206;2023-09-19T12:04:37;5.13;;;2.47;;
71677;SDS011;59511;52.136;6.206;2023-09-19T12:07:06;5.38;;;2.78;;
71677;SDS011;59511;52.136;6.206;2023-09-19T12:09:40;4.82;;;2.40;;
71677;SDS011;59511;52.136;6.206;2023-09-19T12:12:13;6.20;;;2.83;;
71677;SDS011;59511;52.136;6.206;2023-09-19T12:14:48;5.50;;;2.80;;
71677;SDS011;59511;52.136;6.206;2023-09-19T12:17:17;6.00;;;2.83;;
71677;SDS011;59511;52.136;6.206;2023-09-19T12:19:53;6.18;;;3.00;;
71677;SDS011;59511;52.136;6.206;2023-09-19T12:22:19;6.10;;;2.90;;
71677;SDS011;59511;52.136;6.206;2023-09-19T12:24:46;5.38;;;3.20;;
71677;SDS011;59511;52.136;6.206;2023-09-19T12:27:12;5.10;;;2.83;;
71677;SDS011;59511;52.136;6.206;2023-09-19T12:29:42;7.00;;;3.15;;
71677;SDS011;59511;52.136;6.206;2023-09-19T12:32:09;5.68;;;2.72;;
71677;SDS011;59511;52.136;6.206;2023-09-19T12:34:35;6.00;;;2.80;;
71677;SDS011;59511;52.136;6.206;2023-09-19T12:37:10;5.22;;;2.80;;
71677;SDS011;59511;52.136;6.206;2023-09-19T12:40:03;5.57;;;2.80;;
71677;SDS011;59511;52.136;6.206;2023-09-19T12:42:42;5.32;;;2.78;;
71677;SDS011;59511;52.136;6.206;2023-09-19T12:45:09;6.60;;;3.00;;
71677;SDS011;59511;52.136;6.206;2023-09-19T12:47:38;5.18;;;2.92;;
71677;SDS011;59511;52.136;6.206;2023-09-19T12:55:23;5.50;;;3.10;;
71677;SDS011;59511;52.136;6.206;2023-09-19T13:00:41;5.70;;;2.78;;
71677;SDS011;59511;52.136;6.206;2023-09-19T13:05:50;5.83;;;2.90;;
71677;SDS011;59511;52.136;6.206;2023-09-19T13:08:29;7.13;;;2.70;;
71677;SDS011;59511;52.136;6.206;2023-09-19T13:13:39;5.50;;;2.80;;
71677;SDS011;59511;52.136;6.206;2023-09-19T13:16:06;5.45;;;2.60;;
71677;SDS011;59511;52.136;6.206;2023-09-19T13:18:53;6.47;;;2.87;;
71677;SDS011;59511;52.136;6.206;2023-09-19T13:21:55;5.68;;;2.63;;
71677;SDS011;59511;52.136;6.206;2023-09-19T13:24:22;6.25;;;2.70;;
71677;SDS011;59511;52.136;6.206;2023-09-19T13:26:51;5.85;;;3.00;;
71677;SDS011;59511;52.136;6.206;2023-09-19T13:29:16;7.90;;;2.90;;
71677;SDS011;59511;52.136;6.206;2023-09-19T13:31:50;4.78;;;2.80;;
71677;SDS011;59511;52.136;6.206;2023-09-19T13:34:18;4.75;;;2.50;;
71677;SDS011;59511;52.136;6.206;2023-09-19T13:36:44;5.53;;;3.13;;
71677;SDS011;59511;52.136;6.206;2023-09-19T13:39:10;6.40;;;2.72;;
71677;SDS011;59511;52.136;6.206;2023-09-19T13:41:38;5.07;;;2.63;;
71677;SDS011;59511;52.136;6.206;2023-09-19T13:44:03;5.30;;;2.97;;
71677;SDS011;59511;52.136;6.206;2023-09-19T13:46:29;6.07;;;2.92;;
71677;SDS011;59511;52.136;6.206;2023-09-19T13:48:58;4.50;;;2.60;;
71677;SDS011;59511;52.136;6.206;2023-09-19T13:51:25;6.20;;;3.20;;
71677;SDS011;59511;52.136;6.206;2023-09-19T13:53:51;4.13;;;2.30;;
71677;SDS011;59511;52.136;6.206;2023-09-19T13:56:16;4.75;;;2.80;;
71677;SDS011;59511;52.136;6.206;2023-09-19T13:58:42;5.43;;;3.40;;
71677;SDS011;59511;52.136;6.206;2023-09-19T14:01:07;6.23;;;3.00;;
71677;SDS011;59511;52.136;6.206;2023-09-19T14:03:37;5.00;;;2.95;;
71677;SDS011;59511;52.136;6.206;2023-09-19T14:06:03;6.10;;;3.10;;
71677;SDS011;59511;52.136;6.206;2023-09-19T14:08:29;5.80;;;3.37;;
71677;SDS011;59511;52.136;6.206;2023-09-19T14:10:54;6.50;;;3.23;;
71677;SDS011;59511;52.136;6.206;2023-09-19T14:13:20;6.55;;;3.30;;
71677;SDS011;59511;52.136;6.206;2023-09-19T14:15:46;6.23;;;3.03;;
71677;SDS011;59511;52.136;6.206;2023-09-19T14:18:11;6.70;;;3.28;;
71677;SDS011;59511;52.136;6.206;2023-09-19T14:20:40;6.20;;;3.10;;
71677;SDS011;59511;52.136;6.206;2023-09-19T14:23:06;5.22;;;2.80;;
71677;SDS011;59511;52.136;6.206;2023-09-19T14:25:33;5.90;;;2.90;;
71677;SDS011;59511;52.136;6.206;2023-09-19T14:27:59;5.78;;;3.25;;
71677;SDS011;59511;52.136;6.206;2023-09-19T14:30:25;4.83;;;2.90;;
71677;SDS011;59511;52.136;6.206;2023-09-19T14:32:51;5.32;;;3.03;;
71677;SDS011;59511;52.136;6.206;2023-09-19T14:35:16;6.27;;;3.33;;
71677;SDS011;59511;52.136;6.206;2023-09-19T14:37:42;6.73;;;2.80;;
71677;SDS011;59511;52.136;6.206;2023-09-19T14:40:08;4.23;;;2.93;;
71677;SDS011;59511;52.136;6.206;2023-09-19T14:42:38;4.20;;;2.60;;
71677;SDS011;59511;52.136;6.206;2023-09-19T14:45:04;4.38;;;2.78;;
71677;SDS011;59511;52.136;6.206;2023-09-19T14:47:31;5.37;;;3.37;;
71677;SDS011;59511;52.136;6.206;2023-09-19T14:49:58;5.45;;;2.95;;
71677;SDS011;59511;52.136;6.206;2023-09-19T14:52:25;5.20;;;2.50;;
71677;SDS011;59511;52.136;6.206;2023-09-19T14:54:53;4.40;;;2.63;;
71677;SDS011;59511;52.136;6.206;2023-09-19T14:57:18;4.80;;;2.70;;
71677;SDS011;59511;52.136;6.206;2023-09-19T14:59:45;4.63;;;2.72;;
71677;SDS011;59511;52.136;6.206;2023-09-19T15:02:10;4.67;;;2.63;;
71677;SDS011;59511;52.136;6.206;2023-09-19T15:04:36;4.60;;;2.30;;
71677;SDS011;59511;52.136;6.206;2023-09-19T15:07:02;5.85;;;2.72;;
71677;SDS011;59511;52.136;6.206;2023-09-19T15:09:28;5.50;;;2.70;;
71677;SDS011;59511;52.136;6.206;2023-09-19T15:11:57;4.85;;;2.53;;
71677;SDS011;59511;52.136;6.206;2023-09-19T15:14:22;4.40;;;2.80;;
71677;SDS011;59511;52.136;6.206;2023-09-19T15:16:50;5.25;;;2.65;;
71677;SDS011;59511;52.136;6.206;2023-09-19T15:19:15;5.15;;;2.60;;
71677;SDS011;59511;52.136;6.206;2023-09-19T15:21:42;3.90;;;2.77;;
71677;SDS011;59511;52.136;6.206;2023-09-19T15:24:08;5.43;;;2.92;;
71677;SDS011;59511;52.136;6.206;2023-09-19T15:26:34;4.22;;;2.40;;
71677;SDS011;59511;52.136;6.206;2023-09-19T15:29:04;4.82;;;2.60;;
71677;SDS011;59511;52.136;6.206;2023-09-19T15:31:30;4.40;;;2.53;;
71677;SDS011;59511;52.136;6.206;2023-09-19T15:33:55;5.27;;;2.63;;
71677;SDS011;59511;52.136;6.206;2023-09-19T15:36:20;5.17;;;2.90;;
71677;SDS011;59511;52.136;6.206;2023-09-19T15:41:37;5.55;;;2.53;;
71677;SDS011;59511;52.136;6.206;2023-09-19T15:44:04;4.72;;;2.75;;
71677;SDS011;59511;52.136;6.206;2023-09-19T15:46:35;4.90;;;2.60;;
71677;SDS011;59511;52.136;6.206;2023-09-19T15:49:02;4.60;;;2.50;;
71677;SDS011;59511;52.136;6.206;2023-09-19T15:51:28;4.50;;;2.58;;
71677;SDS011;59511;52.136;6.206;2023-09-19T15:53:54;5.43;;;2.80;;
71677;SDS011;59511;52.136;6.206;2023-09-19T15:56:21;4.72;;;2.30;;
71677;SDS011;59511;52.136;6.206;2023-09-19T15:58:48;4.20;;;2.45;;
71677;SDS011;59511;52.136;6.206;2023-09-19T16:01:15;4.83;;;2.50;;
71677;SDS011;59511;52.136;6.206;2023-09-19T16:03:44;4.63;;;2.92;;